メインページ
METAR-TAF:

METAR-TAF

空港 :

Skyhaven Airport

ロチェスター, ニューハンプシャー州, アメリカ合衆国

緯度: 43-16-41N, 経度: 070-55-20W, 海抜: 98m

現時点の気象観測

当レポートは1時間5分前の14:51(UTC)に作成
北/北西の風 3kt
気温 -12°C
湿度 56%
気圧 1032 hPa
視程: 16.1km
晴天

METAR: KDAW 181451Z AUTO 33003KT 10SM CLR M12/M19 A3048 RMK AO2 SLP327 T11171194 56012

時間: 10:56 (15:56 UTC)


TAF: 見つかりません

4,000以上の空港の気象観測と天気予報(METAR報とTAF報)

利用可能な観測所は地図上に黄色い丸と赤い丸で示す。

丸の上にカーソルを重ねると観測所名を参照できる。

次にクリックすると気象観測と天気予報を参照できる。

マップの切り替え:黒色「×」印の緑ボタンをクリックして拡大、「-」印の緑ボタンをクリックして縮小、緑色の三角印をクリックして隣りの地図に切り替え


METAR-TAF: